Time;durP1;ratioP1;P1;durP2;ratioP2;P2;SDS_P1;SDS_P2;PMS_P1;PMS_P2;Temp;Humidity;BMP_temperature;BMP_pressure;BME280_temperature;BME280_humidity;BME280_pressure;Samples;Min_cycle;Max_cycle;Signal;HPM_P1;HPM_P2
2022/04/19 00:00:38;;;;;;;6.30;4.55;;;;;;;7.40;94.04;99700.42;1621154;88;21240;-58
2022/04/19 00:03:45;;;;;;;9.85;7.80;;;;;;;7.36;94.08;99701.27;1621004;88;21252;-58
2022/04/19 00:06:52;;;;;;;6.12;4.47;;;;;;;7.39;94.18;99715.91;1621046;88;21367;-59
2022/04/19 00:09:58;;;;;;;6.62;4.45;;;;;;;7.44;94.32;99709.44;1621069;88;21312;-58
2022/04/19 00:13:10;;;;;;;5.83;3.92;;;;;;;7.47;94.32;99709.59;1621079;88;21320;-58
2022/04/19 00:16:11;;;;;;;6.28;4.33;;;;;;;7.55;94.48;99712.30;1621119;88;21221;-59
2022/04/19 00:19:17;;;;;;;5.67;3.80;;;;;;;7.55;94.13;99696.82;1621000;88;21228;-59
2022/04/19 00:22:23;;;;;;;5.42;4.10;;;;;;;7.55;94.05;99696.82;1621143;88;21281;-58
2022/04/19 00:25:31;;;;;;;5.33;3.50;;;;;;;7.56;94.05;99699.04;1620970;88;21288;-59
2022/04/19 00:28:38;;;;;;;5.90;4.22;;;;;;;7.58;94.00;99696.97;1620863;88;21240;-59
2022/04/19 00:31:44;;;;;;;6.47;4.30;;;;;;;7.59;94.02;99699.52;1621696;85;21741;-59
2022/04/19 00:34:50;;;;;;;5.75;4.00;;;;;;;7.60;93.90;99692.20;1620490;88;21292;-59
2022/04/19 00:37:55;;;;;;;5.97;4.17;;;;;;;7.59;93.83;99697.33;1621113;88;21252;-58
2022/04/19 00:41:01;;;;;;;5.92;4.30;;;;;;;7.56;93.74;99686.78;1621030;88;21220;-58
2022/04/19 00:44:08;;;;;;;6.47;4.35;;;;;;;7.49;93.71;99687.13;1621035;88;21325;-59
2022/04/19 00:47:18;;;;;;;6.35;4.58;;;;;;;7.44;93.82;99671.31;1620813;88;21221;-59
2022/04/19 00:50:26;;;;;;;;;;;;;;;7.41;94.04;99687.14;1623382;88;21300;-59
2022/04/19 00:53:34;;;;;;;7.22;4.78;;;;;;;7.43;94.33;99687.33;1621128;88;20260;-58
2022/04/19 00:56:42;;;;;;;6.90;4.72;;;;;;;7.47;94.54;99687.30;1620884;88;21213;-58
2022/04/19 00:59:51;;;;;;;6.37;4.12;;;;;;;7.52;94.75;99677.25;1603668;88;21251;-59
2022/04/19 01:02:58;;;;;;;8.53;6.00;;;;;;;7.54;94.77;99680.16;1621021;88;21236;-57
2022/04/19 01:10:04;;;;;;;7.10;4.65;;;;;;;7.66;94.97;99689.31;1621200;88;21507;-58
2022/04/19 01:13:19;;;;;;;6.00;4.60;;;;;;;7.71;94.95;99693.20;1621282;88;21240;-59
2022/04/19 01:16:26;;;;;;;7.55;4.53;;;;;;;7.75;94.87;99696.44;1620988;88;21236;-58
2022/04/19 01:19:33;;;;;;;8.78;4.90;;;;;;;7.74;94.72;99694.20;1608854;88;21248;-58
2022/04/19 01:22:46;;;;;;;7.35;5.08;;;;;;;7.74;94.62;99689.30;1620898;88;21273;-57
2022/04/19 01:25:54;;;;;;;7.80;5.22;;;;;;;7.74;94.56;99686.03;1621140;88;21272;-58
2022/04/19 01:29:03;;;;;;;7.90;4.85;;;;;;;7.74;94.47;99694.20;1620976;88;21288;-58
2022/04/19 01:32:13;;;;;;;6.58;4.33;;;;;;;7.71;94.25;99694.56;1624736;88;21221;-58
2022/04/19 01:35:26;;;;;;;7.45;4.90;;;;;;;7.66;94.17;99687.42;1625063;88;21284;-58
2022/04/19 01:38:32;;;;;;;7.10;5.15;;;;;;;7.62;94.14;99688.80;1625125;88;21378;-59
2022/04/19 01:41:39;;;;;;;6.00;4.58;;;;;;;7.60;94.26;99679.95;1625187;88;21300;-58
2022/04/19 01:44:47;;;;;;;6.05;4.62;;;;;;;7.60;94.41;99672.64;1625278;88;21353;-58
2022/04/19 01:47:53;;;;;;;6.58;4.95;;;;;;;7.62;94.52;99679.27;1625130;88;21220;-58
2022/04/19 01:51:00;;;;;;;6.10;4.80;;;;;;;7.63;94.46;99679.09;1625173;88;21273;-58
2022/04/19 01:54:10;;;;;;;8.48;4.42;;;;;;;7.61;94.38;99678.41;1561565;91;21523;-57
2022/04/19 01:57:15;;;;;;;7.10;4.67;;;;;;;7.61;94.38;99677.59;1625289;88;21247;-59
2022/04/19 02:00:21;;;;;;;5.55;4.25;;;;;;;7.60;94.38;99685.40;1624792;88;21300;-57
2022/04/19 02:03:28;;;;;;;6.85;4.78;;;;;;;7.58;94.42;99681.48;1625193;88;21272;-58
2022/04/19 02:06:36;;;;;;;9.28;5.10;;;;;;;7.61;94.52;99687.13;1625388;88;21224;-60
2022/04/19 02:09:42;;;;;;;6.83;4.83;;;;;;;7.63;94.55;99678.77;1625142;88;21240;-59
2022/04/19 02:12:52;;;;;;;8.28;4.45;;;;;;;7.63;94.50;99678.77;1625134;88;21235;-58
2022/04/19 02:16:03;;;;;;;8.28;4.53;;;;;;;7.57;94.33;99670.77;1625062;88;21382;-58
2022/04/19 02:19:10;;;;;;;7.20;4.85;;;;;;;7.55;94.46;99669.58;1625058;88;21328;-58
2022/04/19 02:22:17;;;;;;;8.33;4.40;;;;;;;7.53;94.50;99662.09;1625576;88;21256;-59
2022/04/19 02:25:24;;;;;;;8.53;5.15;;;;;;;7.52;94.59;99665.85;1624255;88;21233;-58
2022/04/19 02:28:38;;;;;;;7.58;4.30;;;;;;;7.52;94.68;99667.21;1625026;88;21288;-59
2022/04/19 02:31:49;;;;;;;7.55;4.95;;;;;;;7.50;94.64;99674.70;1624743;88;21232;-58
2022/04/19 02:34:57;;;;;;;8.60;4.92;;;;;;;7.48;94.80;99665.84;1625088;85;21221;-58
2022/04/19 02:38:05;;;;;;;7.92;4.70;;;;;;;7.49;94.96;99664.84;1621050;88;21236;-58
2022/04/19 02:41:12;;;;;;;8.30;4.10;;;;;;;7.51;95.09;99664.66;1620929;88;21240;-59
2022/04/19 02:44:21;;;;;;;8.60;4.30;;;;;;;7.52;95.10;99664.49;1621009;88;21741;-58
2022/04/19 02:47:28;;;;;;;14.18;4.92;;;;;;;7.55;95.18;99668.72;1621025;88;21296;-58
2022/04/19 02:50:34;;;;;;;12.55;4.55;;;;;;;7.56;95.19;99669.91;1621006;88;21605;-59
2022/04/19 02:53:40;;;;;;;6.08;3.72;;;;;;;7.54;95.17;99659.73;1621128;88;21316;-59
2022/04/19 02:56:49;;;;;;;12.73;4.50;;;;;;;7.53;95.21;99655.28;1620869;88;21252;-59
2022/04/19 02:59:56;;;;;;;8.38;4.10;;;;;;;7.54;95.26;99651.56;1620873;88;21244;-59
2022/04/19 03:03:02;;;;;;;8.65;4.22;;;;;;;7.53;95.23;99650.37;1620787;88;21232;-59
2022/04/19 03:06:08;;;;;;;7.10;4.50;;;;;;;7.49;95.28;99649.00;1620541;88;21268;-58
2022/04/19 03:09:14;;;;;;;8.35;4.83;;;;;;;7.51;95.47;99644.24;1621012;88;21220;-58
2022/04/19 03:12:22;;;;;;;7.83;4.60;;;;;;;7.56;95.62;99635.87;1620810;88;21236;-58
2022/04/19 03:15:34;;;;;;;12.40;4.83;;;;;;;7.58;95.65;99633.83;1620858;88;21232;-58
2022/04/19 03:18:41;;;;;;;9.60;4.17;;;;;;;7.61;95.71;99636.20;1620856;88;21264;-58
2022/04/19 03:21:48;;;;;;;14.85;4.12;;;;;;;7.65;95.79;99638.06;1620934;88;21232;-58
2022/04/19 03:28:20;;;;;;;10.13;5.05;;;;;;;7.71;95.73;99625.10;1633304;87;21298;-59
2022/04/19 03:31:27;;;;;;;17.07;5.80;;;;;;;7.71;95.54;99620.19;1646842;87;21276;-60
2022/04/19 03:34:35;;;;;;;11.33;4.97;;;;;;;7.66;95.58;99618.50;1631440;87;21292;-59
2022/04/19 03:37:42;;;;;;;10.05;5.58;;;;;;;7.64;95.73;99632.30;1651627;86;21244;-58
2022/04/19 03:40:48;;;;;;;17.10;5.83;;;;;;;7.67;95.96;99651.01;1651794;87;21224;-57
2022/04/19 03:43:53;;;;;;;12.80;5.50;;;;;;;7.71;96.01;99664.59;1651856;86;21256;-58
2022/04/19 03:47:10;;;;;;;31.23;14.93;;;;;;;7.75;96.03;99673.28;1650902;86;21308;-59
2022/04/19 03:50:16;;;;;;;20.85;10.90;;;;;;;7.78;96.03;99670.20;1650806;87;21248;-58
2022/04/19 03:53:23;;;;;;;12.13;6.15;;;;;;;7.82;96.01;99683.82;1651384;86;21809;-58
2022/04/19 03:56:31;;;;;;;9.63;5.70;;;;;;;7.83;95.98;99695.05;1650827;86;21264;-58
2022/04/19 03:59:38;;;;;;;12.00;5.72;;;;;;;7.87;96.10;99679.53;1650877;86;21241;-59
2022/04/19 04:02:48;;;;;;;14.68;5.67;;;;;;;7.92;96.13;99662.65;1651359;87;21272;-59
2022/04/19 04:05:56;;;;;;;9.60;5.58;;;;;;;7.98;96.35;99679.65;1651195;87;21260;-58
2022/04/19 04:09:02;;;;;;;11.05;6.30;;;;;;;8.06;96.42;99676.89;1651441;86;21284;-58
2022/04/19 04:12:16;;;;;;;16.70;6.33;;;;;;;8.13;96.36;99688.80;1651296;87;21252;-59
2022/04/19 04:15:22;;;;;;;24.10;10.85;;;;;;;8.17;96.23;99684.67;1651320;86;21228;-59
2022/04/19 04:18:29;;;;;;;15.43;7.03;;;;;;;8.23;96.17;99677.20;1651227;87;21627;-59
2022/04/19 04:21:35;;;;;;;18.17;10.60;;;;;;;8.26;96.01;99689.13;1651386;86;21260;-60
2022/04/19 04:24:43;;;;;;;13.45;7.22;;;;;;;8.31;96.01;99698.98;1651406;86;21252;-59
2022/04/19 04:27:50;;;;;;;9.18;5.92;;;;;;;8.37;96.04;99687.36;1651100;86;21236;-58
2022/04/19 04:30:58;;;;;;;22.02;6.92;;;;;;;8.43;95.86;99689.36;1651107;86;21280;-58
2022/04/19 04:34:04;;;;;;;17.45;6.33;;;;;;;8.51;95.68;99685.22;1635506;86;21789;-59
2022/04/19 04:37:11;;;;;;;12.07;6.37;;;;;;;8.54;95.49;99676.68;1646215;85;21272;-59
2022/04/19 04:40:20;;;;;;;20.12;7.12;;;;;;;8.55;95.19;99670.18;1626918;88;21401;-58
2022/04/19 04:43:29;;;;;;;14.13;6.70;;;;;;;8.54;94.97;99670.72;1624925;88;21623;-60
2022/04/19 04:49:57;;;;;;;10.08;5.25;;;;;;;8.66;94.84;99680.17;1624473;87;21754;-60
2022/04/19 04:53:03;;;;;;;9.78;6.08;;;;;;;8.76;94.68;99678.57;1641213;87;21272;-57
2022/04/19 04:56:11;;;;;;;14.40;6.25;;;;;;;8.82;94.45;99666.92;1633131;86;21292;-58
2022/04/19 04:59:18;;;;;;;13.38;7.05;;;;;;;8.78;94.09;99679.25;1623693;88;21840;-56
2022/04/19 05:02:26;;;;;;;11.93;6.72;;;;;;;8.75;94.04;99690.53;1640102;85;21794;-56
2022/04/19 05:05:33;;;;;;;20.85;7.58;;;;;;;8.76;94.05;99675.84;1634631;86;21297;-57
2022/04/19 05:08:51;;;;;;;23.83;7.87;;;;;;;8.75;93.83;99684.53;1642638;87;21248;-56
2022/04/19 05:12:00;;;;;;;14.50;8.55;;;;;;;8.75;93.84;99693.25;1625294;87;21240;-56
2022/04/19 05:15:08;;;;;;;12.43;6.80;;;;;;;8.73;93.86;99692.58;1650529;86;21251;-56
2022/04/19 05:18:17;;;;;;;16.52;6.62;;;;;;;8.72;93.77;99686.80;1650258;86;21288;-56
2022/04/19 05:21:24;;;;;;;10.48;6.12;;;;;;;8.68;93.70;99692.27;1650813;86;21284;-57
2022/04/19 05:24:32;;;;;;;11.45;5.90;;;;;;;8.66;93.79;99698.41;1650990;86;21256;-56
2022/04/19 05:27:37;;;;;;;13.03;5.83;;;;;;;8.67;93.97;99691.95;1651204;87;21248;-55
2022/04/19 05:30:44;;;;;;;19.60;6.67;;;;;;;8.71;93.92;99690.54;1650642;87;21236;-56
2022/04/19 05:33:50;;;;;;;13.78;6.53;;;;;;;8.71;93.86;99693.27;1635590;87;21288;-55
2022/04/19 05:36:58;;;;;;;19.67;8.43;;;;;;;8.76;94.16;99695.80;1623148;88;21216;-55
2022/04/19 05:40:05;;;;;;;23.98;6.95;;;;;;;8.86;94.23;99696.39;1609297;88;21257;-57
2022/04/19 05:43:10;;;;;;;9.85;6.10;;;;;;;8.91;93.98;99701.33;1604779;88;21232;-57
2022/04/19 05:46:20;;;;;;;17.48;6.05;;;;;;;8.97;94.01;99706.05;1612007;88;21244;-57
2022/04/19 05:49:28;;;;;;;11.20;5.65;;;;;;;9.04;93.86;99704.28;1599032;88;21287;-56
2022/04/19 05:52:36;;;;;;;15.85;7.53;;;;;;;9.11;93.82;99695.70;1600617;88;21311;-56
2022/04/19 05:55:41;;;;;;;16.25;8.33;;;;;;;9.18;93.55;99692.55;1600367;89;21299;-56
2022/04/19 05:58:48;;;;;;;17.23;7.35;;;;;;;9.21;93.49;99703.14;1577438;88;21329;-57
2022/04/19 06:05:17;;;;;;;15.23;9.00;;;;;;;9.25;92.92;99703.09;1614541;88;21781;-59
2022/04/19 06:08:23;;;;;;;16.80;7.05;;;;;;;9.27;92.87;99706.49;1620491;88;21305;-57
2022/04/19 06:11:32;;;;;;;13.80;6.67;;;;;;;9.34;92.88;99706.06;1625562;88;21237;-57
2022/04/19 06:14:40;;;;;;;12.58;6.53;;;;;;;9.40;92.79;99720.38;1620057;88;21308;-57
2022/04/19 06:17:48;;;;;;;16.30;6.58;;;;;;;9.48;92.64;99723.55;1626303;88;21228;-57
2022/04/19 06:21:13;;;;;;;11.03;6.42;;;;;;;9.58;92.52;99722.74;1606935;86;21842;-57
2022/04/19 06:24:21;;;;;;;11.33;6.25;;;;;;;9.64;92.11;99720.13;1607168;88;21261;-56
2022/04/19 06:27:27;;;;;;;14.70;6.75;;;;;;;9.67;91.79;99715.65;1625215;88;21197;-57
2022/04/19 06:30:33;;;;;;;12.65;7.00;;;;;;;9.67;91.32;99721.11;1615401;88;21627;-57
2022/04/19 06:33:40;;;;;;;14.50;7.28;;;;;;;9.67;91.24;99714.28;1621984;88;21312;-56
2022/04/19 06:36:46;;;;;;;10.40;6.40;;;;;;;9.75;91.19;99723.77;1618793;88;21726;-57
2022/04/19 06:39:51;;;;;;;12.50;6.87;;;;;;;9.79;90.69;99718.27;1630913;86;21252;-57
2022/04/19 06:42:58;;;;;;;12.25;7.28;;;;;;;9.84;90.58;99719.94;1638999;85;21228;-56
2022/04/19 06:46:21;;;;;;;12.28;6.87;;;;;;;9.88;90.46;99728.07;1639038;87;21627;-58
2022/04/19 06:49:28;;;;;;;15.30;8.23;;;;;;;9.87;90.24;99725.02;1609682;89;21245;-57
2022/04/19 06:52:34;;;;;;;12.95;7.12;;;;;;;9.95;90.27;99726.30;1611346;89;21612;-57
2022/04/19 06:55:48;;;;;;;13.08;7.17;;;;;;;9.96;89.87;99730.72;1597182;89;21289;-56
2022/04/19 06:58:56;;;;;;;10.55;5.90;;;;;;;9.95;89.59;99726.30;1629073;87;21296;-57
2022/04/19 07:02:02;;;;;;;13.60;6.58;;;;;;;9.93;89.45;99727.00;1625426;87;21296;-56
2022/04/19 07:05:11;;;;;;;10.20;5.83;;;;;;;9.95;89.24;99719.97;1624809;87;21369;-56
2022/04/19 07:08:17;;;;;;;11.55;6.42;;;;;;;9.99;89.19;99729.52;1621361;87;21287;-56
2022/04/19 07:11:24;;;;;;;12.95;6.05;;;;;;;9.96;88.78;99725.77;1636665;87;21197;-57
2022/04/19 07:14:36;;;;;;;10.63;5.55;;;;;;;10.04;89.08;99722.42;1631584;87;21738;-57
2022/04/19 07:17:48;;;;;;;12.15;6.30;;;;;;;10.09;88.91;99714.55;1626676;87;22099;-56
2022/04/19 07:27:42;;;;;;;8.98;5.40;;;;;;;10.06;88.28;99712.67;1642616;87;21200;-57
2022/04/19 07:30:49;;;;;;;11.68;5.92;;;;;;;10.06;88.23;99710.80;1629084;87;21240;-56
2022/04/19 07:34:06;;;;;;;12.25;6.47;;;;;;;10.17;88.34;99726.76;1603967;88;21692;-57
2022/04/19 07:37:43;;;;;;;12.70;5.67;;;;;;;10.22;87.89;99714.73;1630350;85;21741;-57
2022/04/19 07:40:50;;;;;;;9.75;5.03;;;;;;;10.30;87.56;99717.38;1632823;85;21240;-57
2022/04/19 07:44:01;;;;;;;14.07;6.25;;;;;;;10.28;87.22;99718.58;1610941;86;21251;-57
2022/04/19 07:47:08;;;;;;;15.53;9.88;;;;;;;10.28;87.39;99737.22;1643853;86;21819;-58
2022/04/19 07:50:15;;;;;;;10.68;6.45;;;;;;;10.26;87.53;99746.12;1643457;86;21292;-57
2022/04/19 07:53:24;;;;;;;12.00;6.33;;;;;;;10.22;87.25;99738.49;1654187;86;22044;-58
2022/04/19 07:56:34;;;;;;;14.13;7.50;;;;;;;10.17;87.39;99737.70;1630858;86;21264;-57
2022/04/19 07:59:40;;;;;;;12.75;6.80;;;;;;;10.16;87.52;99737.89;1635533;86;21280;-57
2022/04/19 08:02:47;;;;;;;12.88;6.70;;;;;;;10.12;87.50;99737.41;1637476;86;21983;-57
2022/04/19 08:05:56;;;;;;;10.38;5.95;;;;;;;10.10;87.50;99732.64;1654625;86;21307;-56
2022/04/19 08:09:04;;;;;;;35.88;28.52;;;;;;;10.10;87.67;99735.38;1653365;86;21260;-57
2022/04/19 08:12:12;;;;;;;11.97;7.03;;;;;;;10.18;88.02;99735.82;1654363;86;21792;-57
2022/04/19 08:15:19;;;;;;;15.18;7.50;;;;;;;10.30;88.10;99754.30;1624932;88;21261;-57
2022/04/19 08:18:24;;;;;;;15.90;7.30;;;;;;;10.34;87.82;99744.66;1628986;88;21827;-57
2022/04/19 08:21:29;;;;;;;14.80;7.75;;;;;;;10.32;87.46;99749.46;1628301;88;21848;-58
2022/04/19 08:24:40;;;;;;;13.45;7.72;;;;;;;10.32;87.45;99738.52;1627896;88;21336;-57
2022/04/19 08:27:51;;;;;;;14.20;7.95;;;;;;;10.34;87.59;99748.77;1627667;88;21275;-58
2022/04/19 08:30:59;;;;;;;12.13;7.15;;;;;;;10.36;87.70;99748.57;1628177;88;21260;-56
2022/04/19 08:34:06;;;;;;;11.65;6.78;;;;;;;10.39;87.87;99759.99;1628162;88;21267;-58
2022/04/19 08:37:17;;;;;;;12.33;6.97;;;;;;;10.40;87.75;99762.22;1631122;86;21361;-58
2022/04/19 08:40:20;;;;;;;13.45;7.45;;;;;;;10.39;87.58;99759.13;1654323;86;21246;-57
2022/04/19 08:43:28;;;;;;;16.27;8.03;;;;;;;10.35;87.44;99764.13;1636664;87;21811;-56
2022/04/19 08:46:42;;;;;;;14.78;7.67;;;;;;;10.32;87.40;99769.16;1652111;86;21229;-56
2022/04/19 08:50:02;;;;;;;14.28;8.18;;;;;;;10.28;87.45;99770.55;1643796;86;21268;-62
2022/04/19 09:00:03;;;;;;;12.58;7.10;;;;;;;10.17;87.71;99759.58;1639383;86;21252;-57
2022/04/19 09:03:09;;;;;;;21.52;9.23;;;;;;;10.16;87.90;99770.70;1624389;88;21284;-60
2022/04/19 09:06:16;;;;;;;15.60;9.13;;;;;;;10.11;87.89;99768.54;1617189;86;21282;-58
2022/04/19 09:09:23;;;;;;;19.40;12.43;;;;;;;10.07;88.03;99759.47;1625584;87;21260;-58
2022/04/19 09:12:30;;;;;;;18.62;9.45;;;;;;;10.01;88.19;99748.78;1622450;87;21225;-58
2022/04/19 09:15:54;;;;;;;12.33;7.42;;;;;;;10.00;88.48;99744.36;1621955;87;21208;-58
2022/04/19 09:19:09;;;;;;;13.20;7.45;;;;;;;10.01;88.75;99721.95;1608717;88;21237;-58
2022/04/19 09:22:16;;;;;;;13.78;7.50;;;;;;;10.01;89.01;99730.16;1623388;88;21321;-58
2022/04/19 09:25:27;;;;;;;13.58;7.62;;;;;;;10.04;89.15;99718.84;1622778;88;21401;-57
2022/04/19 09:28:34;;;;;;;15.30;6.97;;;;;;;10.00;89.16;99707.45;1623112;88;21304;-57
2022/04/19 09:31:40;;;;;;;12.70;6.45;;;;;;;9.98;89.24;99693.63;1623049;88;21216;-57
2022/04/19 09:34:48;;;;;;;11.53;5.92;;;;;;;9.92;89.45;99728.55;1621861;88;21264;-57
2022/04/19 09:37:57;;;;;;;10.48;5.28;;;;;;;9.89;89.69;99757.64;1593383;88;21224;-57
2022/04/19 09:41:04;;;;;;;9.48;5.22;;;;;;;9.87;89.95;99767.39;1622210;88;21535;-57
2022/04/19 09:44:13;;;;;;;11.73;5.90;;;;;;;9.92;90.23;99779.13;1624187;85;21288;-57
2022/04/19 09:47:22;;;;;;;11.18;5.80;;;;;;;9.94;90.28;99776.53;1623938;88;21280;-56
2022/04/19 09:50:29;;;;;;;8.80;4.87;;;;;;;9.95;90.07;99762.35;1644657;86;21244;-57
2022/04/19 09:53:53;;;;;;;10.53;5.00;;;;;;;9.90;90.02;99752.48;1623045;88;21248;-57
2022/04/19 09:57:03;;;;;;;8.38;5.15;;;;;;;9.82;90.00;99745.23;1624438;88;21378;-57
2022/04/19 10:00:10;;;;;;;11.05;6.03;;;;;;;9.76;90.25;99754.69;1627077;86;21256;-56
2022/04/19 10:10:03;;;;;;;8.68;5.37;;;;;;;9.67;91.09;99757.18;1613135;88;21251;-59
2022/04/19 10:13:13;;;;;;;9.90;5.65;;;;;;;9.66;91.50;99755.45;1637651;87;21244;-56
2022/04/19 10:16:40;;;;;;;7.83;4.00;;;;;;;9.65;91.66;99739.60;1650028;86;21726;-56
2022/04/19 10:19:49;;;;;;;6.90;4.17;;;;;;;9.66;91.83;99746.75;1636209;87;21268;-56
2022/04/19 10:22:55;;;;;;;9.45;4.47;;;;;;;9.70;92.06;99734.94;1647878;87;21785;-56
2022/04/19 10:26:01;;;;;;;7.00;4.05;;;;;;;9.73;91.97;99720.39;1623323;88;21607;-56
2022/04/19 10:29:07;;;;;;;5.78;3.72;;;;;;;9.76;92.14;99741.87;1644724;86;21275;-58
2022/04/19 10:32:16;;;;;;;8.65;3.95;;;;;;;9.81;92.09;99765.41;1637770;86;21632;-58
2022/04/19 10:35:25;;;;;;;6.25;3.40;;;;;;;9.84;92.23;99775.97;1639512;86;21233;-57
2022/04/19 10:38:30;;;;;;;7.80;3.62;;;;;;;9.89;92.33;99784.47;1665002;85;21221;-55
2022/04/19 10:42:10;;;;;;;5.85;3.15;;;;;;;9.93;92.22;99756.21;1615285;88;21225;-57
2022/04/19 10:45:28;;;;;;;7.47;3.20;;;;;;;9.98;92.06;99751.90;1614343;84;21266;-56
2022/04/19 10:48:36;;;;;;;5.20;3.08;;;;;;;10.09;91.86;99753.34;1618122;88;21253;-57
2022/04/19 10:51:45;;;;;;;6.50;3.40;;;;;;;10.19;91.45;99767.59;1644168;87;21245;-60
2022/04/19 10:55:26;;;;;;;5.58;3.05;;;;;;;10.25;91.37;99770.94;1656546;85;21848;-57
2022/04/19 10:58:50;;;;;;;7.22;4.28;;;;;;;10.28;91.04;99755.51;1649207;86;21281;-58
2022/04/19 11:01:57;;;;;;;5.85;3.45;;;;;;;10.21;90.67;99786.04;1623150;88;21319;-58
2022/04/19 11:05:04;;;;;;;16.73;13.20;;;;;;;10.20;90.91;99793.39;1634077;87;21255;-57
2022/04/19 11:08:38;;;;;;;5.50;3.33;;;;;;;10.22;90.90;99805.00;1651416;87;21232;-56
2022/04/19 11:12:18;;;;;;;6.33;3.80;;;;;;;10.23;90.80;99805.31;1650917;87;21224;-57
2022/04/19 11:15:25;;;;;;;6.55;4.40;;;;;;;10.20;90.56;99813.90;1649828;87;21643;-56
2022/04/19 11:18:36;;;;;;;6.45;4.08;;;;;;;10.20;90.69;99779.71;1650233;87;21276;-55
2022/04/19 11:22:04;;;;;;;10.45;5.78;;;;;;;10.17;90.50;99750.00;1650503;86;21212;-55
2022/04/19 11:25:16;;;;;;;9.05;6.17;;;;;;;10.14;90.40;99750.39;1640520;86;21262;-54
2022/04/19 11:28:32;;;;;;;34.20;25.32;;;;;;;10.13;90.61;99756.87;1598799;87;21831;-56
2022/04/19 11:31:38;;;;;;;10.75;7.60;;;;;;;10.16;90.81;99761.13;1661998;85;22218;-54
2022/04/19 11:34:46;;;;;;;7.28;5.12;;;;;;;10.15;90.75;99753.95;1634944;87;22211;-55
2022/04/19 11:37:52;;;;;;;19.15;11.10;;;;;;;10.12;90.65;99762.53;1650066;86;21229;-55
2022/04/19 11:47:33;;;;;;;34.25;25.50;;;;;;;10.05;91.12;99791.65;1651097;86;21249;-57
2022/04/19 11:50:39;;;;;;;10.45;5.85;;;;;;;10.02;91.22;99787.38;1650720;86;21236;-55
2022/04/19 11:53:53;;;;;;;6.25;3.92;;;;;;;10.03;91.32;99785.00;1649273;87;21849;-56
2022/04/19 11:57:06;;;;;;;3.27;2.30;;;;;;;10.05;91.31;99782.08;1599056;89;21280;-57
2022/04/19 12:00:17;;;;;;;7.20;4.35;;;;;;;10.09;91.37;99806.16;1624237;88;21204;-57
2022/04/19 12:03:37;;;;;;;5.87;3.62;;;;;;;10.11;91.36;99802.72;1627890;87;21762;-56
2022/04/19 12:06:43;;;;;;;11.15;7.85;;;;;;;10.10;91.14;99801.00;1625165;88;21252;-58
2022/04/19 12:09:51;;;;;;;5.47;3.83;;;;;;;10.06;91.09;99797.44;1624979;88;21240;-56
2022/04/19 12:12:57;;;;;;;5.22;2.92;;;;;;;10.04;90.86;99789.92;1624074;88;21243;-56
2022/04/19 12:16:09;;;;;;;3.35;1.95;;;;;;;10.02;90.88;99790.12;1624479;88;21564;-57
2022/04/19 12:19:18;;;;;;;4.35;2.42;;;;;;;10.06;91.00;99780.52;1625017;87;21781;-57
2022/04/19 12:22:28;;;;;;;2.80;2.20;;;;;;;10.06;90.86;99770.09;1623935;88;21236;-57
2022/04/19 12:25:35;;;;;;;3.92;1.90;;;;;;;10.03;90.71;99761.76;1648590;87;21792;-56
2022/04/19 12:28:51;;;;;;;3.15;1.75;;;;;;;10.01;90.58;99754.25;1648720;86;21260;-56
2022/04/19 12:32:00;;;;;;;3.02;1.95;;;;;;;10.02;90.41;99763.31;1624488;88;21244;-55
2022/04/19 12:35:17;;;;;;;4.40;3.17;;;;;;;10.05;90.28;99770.59;1595061;88;21785;-56
2022/04/19 12:38:22;;;;;;;4.10;2.65;;;;;;;10.11;90.32;99772.64;1624721;88;21256;-55
2022/04/19 12:41:28;;;;;;;19.55;16.05;;;;;;;10.17;90.07;99771.02;1625396;88;21741;-56
2022/04/19 12:44:35;;;;;;;3.70;2.92;;;;;;;10.25;90.13;99780.51;1624592;88;21762;-56
2022/04/19 12:47:42;;;;;;;3.42;2.20;;;;;;;10.33;90.08;99799.06;1624215;85;21232;-56
2022/04/19 12:50:49;;;;;;;4.15;1.67;;;;;;;10.36;89.59;99790.47;1623993;88;21233;-57
2022/04/19 12:54:12;;;;;;;2.40;1.40;;;;;;;10.38;89.28;99789.77;1636537;87;21241;-57
2022/04/19 12:57:24;;;;;;;3.67;2.60;;;;;;;10.39;89.09;99790.09;1651376;87;21196;-57
2022/04/19 13:00:31;;;;;;;3.12;1.70;;;;;;;10.38;88.43;99782.93;1628587;86;21248;-57
2022/04/19 13:03:40;;;;;;;1.80;1.10;;;;;;;10.37;88.05;99792.66;1615777;88;21870;-57
2022/04/19 13:13:34;;;;;;;3.17;1.50;;;;;;;10.61;87.19;99778.69;1557357;90;21272;-57
2022/04/19 13:16:41;;;;;;;3.15;1.70;;;;;;;10.79;86.66;99771.44;1623816;88;21943;-57
2022/04/19 13:19:49;;;;;;;3.58;2.27;;;;;;;10.86;85.66;99771.02;1623464;88;21978;-57
2022/04/19 13:22:54;;;;;;;2.70;1.60;;;;;;;10.93;85.05;99769.18;1622582;88;21292;-57
2022/04/19 13:26:02;;;;;;;2.15;1.35;;;;;;;11.05;84.88;99782.17;1622731;88;21269;-56
2022/04/19 13:29:11;;;;;;;3.87;3.17;;;;;;;11.07;83.54;99775.16;1622877;88;21220;-57
2022/04/19 13:32:19;;;;;;;3.33;2.00;;;;;;;10.97;82.65;99765.03;1622666;88;21741;-56
2022/04/19 13:35:24;;;;;;;3.50;1.95;;;;;;;10.93;82.68;99759.09;1622874;88;21236;-56
2022/04/19 13:38:36;;;;;;;4.87;2.77;;;;;;;10.87;82.44;99756.27;1622613;88;21228;-56
2022/04/19 13:41:45;;;;;;;3.85;2.60;;;;;;;10.84;82.59;99753.41;1622730;88;21236;-56
2022/04/19 13:44:50;;;;;;;5.15;2.17;;;;;;;10.85;82.54;99753.72;1627003;86;21256;-55
2022/04/19 13:47:57;;;;;;;2.60;1.67;;;;;;;10.89;82.54;99761.90;1626288;85;21232;-56
2022/04/19 13:51:05;;;;;;;1.70;1.32;;;;;;;10.83;82.13;99758.54;1612363;87;21220;-57
2022/04/19 13:54:12;;;;;;;1.37;1.22;;;;;;;10.72;81.82;99759.58;1614017;88;21212;-57
2022/04/19 13:57:17;;;;;;;2.40;1.37;;;;;;;10.67;81.89;99760.16;1608925;87;21235;-56
2022/04/19 14:00:25;;;;;;;2.35;1.50;;;;;;;10.66;81.51;99765.28;1616176;89;21270;-56
2022/04/19 14:03:36;;;;;;;2.22;1.60;;;;;;;10.62;81.44;99777.67;1586552;88;21305;-56
2022/04/19 14:06:47;;;;;;;3.10;1.90;;;;;;;10.58;81.08;99785.09;1622768;87;21751;-57
2022/04/19 14:09:54;;;;;;;2.67;1.77;;;;;;;10.52;81.32;99774.36;1625195;87;21257;-57
2022/04/19 14:13:00;;;;;;;4.03;1.98;;;;;;;10.55;81.72;99780.31;1622651;87;21209;-57
2022/04/19 14:16:10;;;;;;;2.47;1.72;;;;;;;10.50;81.49;99779.17;1622472;88;21225;-57
2022/04/19 14:19:19;;;;;;;2.85;1.87;;;;;;;10.38;81.56;99779.34;1615842;87;21241;-57
2022/04/19 14:22:28;;;;;;;3.30;1.85;;;;;;;10.26;81.73;99778.95;1622599;87;21198;-56
2022/04/19 14:25:37;;;;;;;3.50;2.47;;;;;;;10.20;81.91;99775.61;1616010;87;21612;-56
2022/04/19 14:35:35;;;;;;;3.27;1.70;;;;;;;9.99;81.56;99769.16;1611228;87;21258;-56
2022/04/19 14:38:42;;;;;;;4.90;2.70;;;;;;;9.91;81.81;99774.17;1603984;88;21265;-57
2022/04/19 14:41:50;;;;;;;3.83;2.50;;;;;;;9.88;82.13;99787.36;1607545;87;21223;-57
2022/04/19 14:45:16;;;;;;;5.37;2.58;;;;;;;9.77;82.21;99777.73;1602754;89;21243;-56
2022/04/19 14:48:26;;;;;;;4.67;3.02;;;;;;;9.66;82.52;99780.91;1591698;83;21275;-56
2022/04/19 14:54:58;;;;;;;5.10;3.08;;;;;;;9.58;82.99;99780.13;1624020;87;21291;-57
2022/04/19 14:58:06;;;;;;;6.65;4.30;;;;;;;9.47;83.10;99788.25;1619936;88;21271;-58
2022/04/19 15:01:12;;;;;;;9.00;5.20;;;;;;;9.38;83.48;99777.06;1619963;88;21761;-57
2022/04/19 15:04:20;;;;;;;12.73;6.37;;;;;;;9.34;83.52;99777.62;1619887;88;21232;-57
2022/04/19 15:07:26;;;;;;;8.25;4.60;;;;;;;9.30;83.79;99775.77;1620641;88;21229;-57
2022/04/19 15:10:34;;;;;;;6.97;4.05;;;;;;;9.24;83.94;99777.00;1620440;88;21268;-57
2022/04/19 15:13:43;;;;;;;7.22;4.17;;;;;;;9.18;84.20;99785.39;1645358;86;21201;-57
2022/04/19 15:16:49;;;;;;;7.08;4.20;;;;;;;9.12;84.58;99788.86;1614555;89;21709;-57
2022/04/19 15:19:55;;;;;;;6.97;4.83;;;;;;;9.06;84.77;99786.86;1607072;88;21275;-57
2022/04/19 15:23:02;;;;;;;7.72;4.60;;;;;;;9.00;85.04;99782.98;1590555;90;21253;-57
2022/04/19 15:26:07;;;;;;;9.53;5.62;;;;;;;8.96;85.21;99788.45;1584193;89;21649;-57
2022/04/19 15:29:15;;;;;;;7.87;4.42;;;;;;;8.91;85.49;99794.13;1630180;87;21233;-57
2022/04/19 15:32:24;;;;;;;7.75;4.42;;;;;;;8.89;85.72;99809.83;1628776;87;21319;-57
2022/04/19 15:35:30;;;;;;;6.42;4.03;;;;;;;8.86;85.89;99797.91;1638000;87;21260;-57
2022/04/19 15:38:37;;;;;;;5.42;4.05;;;;;;;8.88;86.16;99804.88;1633144;87;21300;-56
2022/04/19 15:41:44;;;;;;;9.15;6.45;;;;;;;8.91;86.23;99805.05;1632531;87;21292;-57
2022/04/19 15:44:52;;;;;;;7.62;4.67;;;;;;;8.90;86.09;99811.52;1626015;87;21307;-56
2022/04/19 15:47:58;;;;;;;6.62;4.40;;;;;;;8.86;86.06;99817.01;1620327;88;21253;-56